Joplin Regional Airport
KJLN : now visible

Airfield :











YOU CAN JOIN US ON...

 
LOGIN :

Register | Disclaimer

   EN    FR    IT 

 









Legend :    VFR   Marginal VFR   IFR   Intensive IFR   Very Intensive IFR
Visi :
Ceiling :
>= 8 km
>= 3000ft
5 to 8 km
1000 to 3000 ft
1500m to 5 km
500 to 1000 ft
800 to 1500m
200 to 500 ft
< 800m
< 200 ft
Symbols :   Thunderstorms  Fog  Heavy snow  Heavy precipitations  Wind > 20 kt







- Airport Elevation : 981 ft
- IATA code : JLN


KJLN - Joplin Regional

CURRENT METAR :
  • 210353Z AUTO 16008KT 10SM SCT020 SCT030 OVC040 23/20 A3003 RMK AO2 SLP160 T02280200

EXPIRED METARs :
  • 210253Z AUTO 15010KT 10SM FEW020 BKN026 OVC034 23/20 A3003 RMK AO2 SLP157 T02280200 53009
  • 210234Z AUTO 15009KT 10SM OVC026 23/20 A3002 RMK AO2 T02280200
  • 210153Z 16009KT 10SM FEW025 OVC033 23/19 A3000 RMK AO2 SLP150 T02280194

TAF KJLN
Valid from the 21 at 02:00 until the 22 at 00:00 UTC


210204Z 2102/2124 16011KT P6SM SCT025 OVC035
TEMPO 2102/2106 BKN025
FM210600 18011KT P6SM BKN015 OVC045
PROB30 2111/2113 4SM TSRA BR OVC015CB
FM211300 19012KT P6SM BKN018
PROB30 2113/2118 4SM TSRA BR OVC009CB
FM211800 19013G21KT P6SM OVC035
PROB30 2118/2124 4SM TSRA BR OVC025CB
No reported NOTAMs for that airfield.



MET'MAP, your aeronautical weather chart ! - Copyright ORBIFLY December 2007 - Disclaimer

ORBIFLY MET'MAP TEAM :

Programming & Development : Alexandra Zaïnal
Concept & Development : Baudouin d'Aumeries
Co-Development & Prog : Marc-Olivier Méhu
Technical & hardware support : Manuel Goepfert

Contact : metmap@orbifly.com




SOURCES & CREDITS :

   NOAA       Earth
Advisory